Time;durP1;ratioP1;P1;durP2;ratioP2;P2;SDS_P1;SDS_P2;PMS_P1;PMS_P2;Temp;Humidity;BMP_temperature;BMP_pressure;BME280_temperature;BME280_humidity;BME280_pressure;Samples;Min_cycle;Max_cycle;Signal;HPM_P1;HPM_P2
2023/12/13 00:01:39;;;;;;;;;;;;;;;;;;4216092;28;20042;-57
2023/12/13 00:03:40;;;;;;;;;;;;;;;;;;4231552;28;19931;-58
2023/12/13 00:05:42;;;;;;;;;;;;;;;;;;4231243;28;20038;-57
2023/12/13 00:07:43;;;;;;;;;;;;;;;;;;4230041;28;20212;-57
2023/12/13 00:09:45;;;;;;;;;;;;;;;;;;4246958;27;19975;-59
2023/12/13 00:11:46;;;;;;;;;;;;;;;;;;4248198;27;20294;-58
2023/12/13 00:13:48;;;;;;;;;;;;;;;;;;4234151;28;20303;-58
2023/12/13 00:15:49;;;;;;;;;;;;;;;;;;4229848;28;20017;-59
2023/12/13 00:17:51;;;;;;;;;;;;;;;;;;4229011;28;19936;-58
2023/12/13 00:19:52;;;;;;;;;;;;;;;;;;4226978;28;20003;-59
2023/12/13 00:21:54;;;;;;;;;;;;;;;;;;4215556;28;19987;-59
2023/12/13 00:23:56;;;;;;;;;;;;;;;;;;4214369;28;19934;-57
2023/12/13 00:25:57;;;;;;;;;;;;;;;;;;4229238;28;20019;-58
2023/12/13 00:27:58;;;;;;;;;;;;;;;;;;4231410;28;20294;-57
2023/12/13 00:30:00;;;;;;;;;;;;;;;;;;4231361;28;20486;-58
2023/12/13 00:32:02;;;;;;;;;;;;;;;;;;4231080;28;19924;-58
2023/12/13 00:34:03;;;;;;;;;;;;;;;;;;4230911;28;20352;-58
2023/12/13 00:36:04;;;;;;;;;;;;;;;;;;4230919;28;19924;-58
2023/12/13 00:38:06;;;;;;;;;;;;;;;;;;4229500;28;20006;-58
2023/12/13 00:40:08;;;;;;;;;;;;;;;;;;4229487;28;19973;-57
2023/12/13 00:42:09;;;;;;;;;;;;;;;;;;4229502;28;19924;-59
2023/12/13 00:44:10;;;;;;;;;;;;;;;;;;4229930;28;19924;-58
2023/12/13 00:46:12;;;;;;;;;;;;;;;;;;4229791;28;19930;-58
2023/12/13 00:48:13;;;;;;;;;;;;;;;;;;4230028;28;19963;-58
2023/12/13 00:50:15;;;;;;;;;;;;;;;;;;4229837;28;20014;-58
2023/12/13 00:52:16;;;;;;;;;;;;;;;;;;4230396;28;19932;-58
2023/12/13 00:54:18;;;;;;;;;;;;;;;;;;4247929;28;20010;-57
2023/12/13 00:56:19;;;;;;;;;;;;;;;;;;4250302;27;20474;-57
2023/12/13 00:58:21;;;;;;;;;;;;;;;;;;4244825;27;19923;-58
2023/12/13 01:00:22;;;;;;;;;;;;;;;;;;4234066;28;19930;-58
2023/12/13 01:02:24;;;;;;;;;;;;;;;;;;4234068;28;20010;-58
2023/12/13 01:04:25;;;;;;;;;;;;;;;;;;4234073;28;19931;-58
2023/12/13 01:06:27;;;;;;;;;;;;;;;;;;4234028;28;19923;-59
2023/12/13 01:08:28;;;;;;;;;;;;;;;;;;4232795;28;19924;-58
2023/12/13 01:10:30;;;;;;;;;;;;;;;;;;4234095;28;19923;-58
2023/12/13 01:12:31;;;;;;;;;;;;;;;;;;4234129;28;19924;-57
2023/12/13 01:14:33;;;;;;;;;;;;;;;;;;4234029;28;19927;-58
2023/12/13 01:16:34;;;;;;;;;;;;;;;;;;4234003;28;19923;-58
2023/12/13 01:18:36;;;;;;;;;;;;;;;;;;4233914;28;19974;-58
2023/12/13 01:20:38;;;;;;;;;;;;;;;;;;4234076;28;19965;-57
2023/12/13 01:22:39;;;;;;;;;;;;;;;;;;4233989;28;19924;-56
2023/12/13 01:24:41;;;;;;;;;;;;;;;;;;4233890;28;19969;-57
2023/12/13 01:26:42;;;;;;;;;;;;;;;;;;4233805;28;19924;-57
2023/12/13 01:28:43;;;;;;;;;;;;;;;;;;4233850;28;19930;-57
2023/12/13 01:30:45;;;;;;;;;;;;;;;;;;4233661;28;19924;-57
2023/12/13 01:32:46;;;;;;;;;;;;;;;;;;4233908;28;19973;-58
2023/12/13 01:34:48;;;;;;;;;;;;;;;;;;4233813;28;19946;-57
2023/12/13 01:36:49;;;;;;;;;;;;;;;;;;4233563;28;19924;-57
2023/12/13 01:38:51;;;;;;;;;;;;;;;;;;4233840;28;19924;-57
2023/12/13 01:40:52;;;;;;;;;;;;;;;;;;4233722;28;19951;-57
2023/12/13 01:43:11;;;;;;;;;;;;;;;;;;4233725;28;19989;-57
2023/12/13 01:45:12;;;;;;;;;;;;;;;;;;4233537;28;20295;-57
2023/12/13 01:47:14;;;;;;;;;;;;;;;;;;4233826;28;19931;-58
2023/12/13 01:49:15;;;;;;;;;;;;;;;;;;4217024;28;19928;-56
2023/12/13 01:51:17;;;;;;;;;;;;;;;;;;4217441;27;20608;-58
2023/12/13 01:53:18;;;;;;;;;;;;;;;;;;4247377;27;19928;-57
2023/12/13 01:55:20;;;;;;;;;;;;;;;;;;4238237;27;20493;-57
2023/12/13 01:57:21;;;;;;;;;;;;;;;;;;4233450;28;19924;-57
2023/12/13 01:59:23;;;;;;;;;;;;;;;;;;4232931;28;20016;-57
2023/12/13 02:03:33;;;;;;;;;;;;;;;;;;4182376;28;19928;-54
2023/12/13 02:05:34;;;;;;;;;;;;;;;;;;4190433;28;19970;-56
2023/12/13 02:07:36;;;;;;;;;;;;;;;;;;4197903;28;19924;-55
2023/12/13 02:09:38;;;;;;;;;;;;;;;;;;4199348;28;19974;-55
2023/12/13 02:11:39;;;;;;;;;;;;;;;;;;4199631;28;19928;-55
2023/12/13 02:13:41;;;;;;;;;;;;;;;;;;4199459;28;19935;-55
2023/12/13 02:15:42;;;;;;;;;;;;;;;;;;4190758;28;20414;-55
2023/12/13 02:17:44;;;;;;;;;;;;;;;;;;4174035;28;19994;-55
2023/12/13 02:19:46;;;;;;;;;;;;;;;;;;4199384;28;20245;-56
2023/12/13 02:21:47;;;;;;;;;;;;;;;;;;4199736;28;20062;-55
2023/12/13 02:23:49;;;;;;;;;;;;;;;;;;4199376;28;19935;-55
2023/12/13 02:25:51;;;;;;;;;;;;;;;;;;4199196;28;19951;-55
2023/12/13 02:27:52;;;;;;;;;;;;;;;;;;4197151;28;19940;-55
2023/12/13 02:29:54;;;;;;;;;;;;;;;;;;4173698;28;19929;-54
2023/12/13 02:31:57;;;;;;;;;;;;;;;;;;4182795;28;19925;-55
2023/12/13 02:33:58;;;;;;;;;;;;;;;;;;4165020;28;19929;-55
2023/12/13 02:36:03;;;;;;;;;;;;;;;;;;4182674;28;19925;-54
2023/12/13 02:38:04;;;;;;;;;;;;;;;;;;4182579;28;19931;-55
2023/12/13 02:40:07;;;;;;;;;;;;;;;;;;4182606;28;19990;-55
2023/12/13 02:42:08;;;;;;;;;;;;;;;;;;4182483;28;19959;-55
2023/12/13 02:44:10;;;;;;;;;;;;;;;;;;4187390;28;20346;-55
2023/12/13 02:46:11;;;;;;;;;;;;;;;;;;4198842;28;19939;-55
2023/12/13 02:48:13;;;;;;;;;;;;;;;;;;4199150;28;20446;-55
2023/12/13 02:50:14;;;;;;;;;;;;;;;;;;4198199;28;19998;-55
2023/12/13 02:52:16;;;;;;;;;;;;;;;;;;4186382;28;19936;-55
2023/12/13 02:54:17;;;;;;;;;;;;;;;;;;4198904;28;19928;-55
2023/12/13 02:56:19;;;;;;;;;;;;;;;;;;4198880;28;19928;-55
2023/12/13 02:58:20;;;;;;;;;;;;;;;;;;4198730;28;19930;-53
2023/12/13 03:00:22;;;;;;;;;;;;;;;;;;4198639;28;19929;-55
2023/12/13 03:02:23;;;;;;;;;;;;;;;;;;4198535;28;19970;-55
2023/12/13 03:04:25;;;;;;;;;;;;;;;;;;4180922;28;19925;-55
2023/12/13 03:06:26;;;;;;;;;;;;;;;;;;4166218;28;20017;-54
2023/12/13 03:08:28;;;;;;;;;;;;;;;;;;4186479;28;20023;-54
2023/12/13 03:10:29;;;;;;;;;;;;;;;;;;4198727;28;19925;-54
2023/12/13 03:12:31;;;;;;;;;;;;;;;;;;4198892;28;20016;-55
2023/12/13 03:14:32;;;;;;;;;;;;;;;;;;4185099;28;19935;-55
2023/12/13 03:16:36;;;;;;;;;;;;;;;;;;4181902;28;20023;-55
2023/12/13 03:18:38;;;;;;;;;;;;;;;;;;4181395;28;20364;-55
2023/12/13 03:20:39;;;;;;;;;;;;;;;;;;4181641;28;19925;-55
2023/12/13 03:22:41;;;;;;;;;;;;;;;;;;4181947;28;19928;-56
2023/12/13 03:24:42;;;;;;;;;;;;;;;;;;4181819;28;19943;-54
2023/12/13 03:26:44;;;;;;;;;;;;;;;;;;4181759;28;19928;-55
2023/12/13 03:28:45;;;;;;;;;;;;;;;;;;4181873;28;19925;-55
2023/12/13 03:30:47;;;;;;;;;;;;;;;;;;4181579;28;20353;-55
2023/12/13 03:32:48;;;;;;;;;;;;;;;;;;4181868;28;20430;-55
2023/12/13 03:34:50;;;;;;;;;;;;;;;;;;4181769;28;20180;-55
2023/12/13 03:36:51;;;;;;;;;;;;;;;;;;4181679;28;19979;-55
2023/12/13 03:38:53;;;;;;;;;;;;;;;;;;4181706;28;20284;-56
2023/12/13 03:40:54;;;;;;;;;;;;;;;;;;4181430;28;20371;-55
2023/12/13 03:42:56;;;;;;;;;;;;;;;;;;4181862;28;19975;-55
2023/12/13 03:44:57;;;;;;;;;;;;;;;;;;4181474;28;19929;-55
2023/12/13 03:46:59;;;;;;;;;;;;;;;;;;4163953;28;19932;-55
2023/12/13 03:49:00;;;;;;;;;;;;;;;;;;4181521;28;19929;-55
2023/12/13 03:51:02;;;;;;;;;;;;;;;;;;4181471;28;19929;-55
2023/12/13 03:53:04;;;;;;;;;;;;;;;;;;4193270;28;19982;-55
2023/12/13 03:55:06;;;;;;;;;;;;;;;;;;4198019;28;20382;-56
2023/12/13 03:57:08;;;;;;;;;;;;;;;;;;4198030;28;19924;-56
2023/12/13 03:59:10;;;;;;;;;;;;;;;;;;4197877;28;20015;-56
2023/12/13 04:01:11;;;;;;;;;;;;;;;;;;4195247;28;19924;-55
2023/12/13 04:03:13;;;;;;;;;;;;;;;;;;4181146;28;19932;-55
2023/12/13 04:05:14;;;;;;;;;;;;;;;;;;4181585;28;19925;-55
2023/12/13 04:07:16;;;;;;;;;;;;;;;;;;4181191;28;20303;-55
2023/12/13 04:09:17;;;;;;;;;;;;;;;;;;4191422;28;19931;-55
2023/12/13 04:11:19;;;;;;;;;;;;;;;;;;4181132;28;20061;-55
2023/12/13 04:13:20;;;;;;;;;;;;;;;;;;4181206;28;20376;-55
2023/12/13 04:15:22;;;;;;;;;;;;;;;;;;4181168;28;19925;-56
2023/12/13 04:17:23;;;;;;;;;;;;;;;;;;4181240;28;19929;-56
2023/12/13 04:19:25;;;;;;;;;;;;;;;;;;4181212;28;20362;-55
2023/12/13 04:21:26;;;;;;;;;;;;;;;;;;4181362;28;19925;-55
2023/12/13 04:23:28;;;;;;;;;;;;;;;;;;4181404;28;19932;-56
2023/12/13 04:25:29;;;;;;;;;;;;;;;;;;4163437;28;19976;-55
2023/12/13 04:27:31;;;;;;;;;;;;;;;;;;4181096;28;19925;-54
2023/12/13 04:29:32;;;;;;;;;;;;;;;;;;4181127;28;20295;-56
2023/12/13 04:31:34;;;;;;;;;;;;;;;;;;4180770;28;19931;-56
2023/12/13 04:33:35;;;;;;;;;;;;;;;;;;4163583;28;19960;-56
2023/12/13 04:35:37;;;;;;;;;;;;;;;;;;4146389;28;20040;-55
2023/12/13 04:37:38;;;;;;;;;;;;;;;;;;4179287;28;19928;-54
2023/12/13 04:39:40;;;;;;;;;;;;;;;;;;4161718;28;20308;-55
2023/12/13 04:41:41;;;;;;;;;;;;;;;;;;4179430;28;19928;-55
2023/12/13 04:43:43;;;;;;;;;;;;;;;;;;4179678;28;19933;-55
2023/12/13 04:45:44;;;;;;;;;;;;;;;;;;4162236;28;20355;-55
2023/12/13 04:47:46;;;;;;;;;;;;;;;;;;4180315;28;20471;-55
2023/12/13 04:49:47;;;;;;;;;;;;;;;;;;4180598;28;20341;-55
2023/12/13 04:51:49;;;;;;;;;;;;;;;;;;4181606;28;19929;-54
2023/12/13 04:53:51;;;;;;;;;;;;;;;;;;4197398;28;20486;-56
2023/12/13 04:55:53;;;;;;;;;;;;;;;;;;4197767;28;19932;-55
2023/12/13 04:57:55;;;;;;;;;;;;;;;;;;4191136;28;19929;-55
2023/12/13 04:59:56;;;;;;;;;;;;;;;;;;4180917;28;19959;-55
2023/12/13 05:01:58;;;;;;;;;;;;;;;;;;4180211;28;19932;-55
2023/12/13 05:04:00;;;;;;;;;;;;;;;;;;4163190;28;20012;-54
2023/12/13 05:06:02;;;;;;;;;;;;;;;;;;4180584;28;20292;-55
2023/12/13 05:08:04;;;;;;;;;;;;;;;;;;4180672;28;19928;-54
2023/12/13 05:10:06;;;;;;;;;;;;;;;;;;4180757;28;19948;-55
2023/12/13 05:12:07;;;;;;;;;;;;;;;;;;4173656;28;19933;-55
2023/12/13 05:14:09;;;;;;;;;;;;;;;;;;4180073;28;19924;-55
2023/12/13 05:16:10;;;;;;;;;;;;;;;;;;4180622;28;20021;-55
2023/12/13 05:18:12;;;;;;;;;;;;;;;;;;4180749;28;19925;-55
2023/12/13 05:20:14;;;;;;;;;;;;;;;;;;4180687;28;19929;-55
2023/12/13 05:22:15;;;;;;;;;;;;;;;;;;4180924;28;20372;-56
2023/12/13 05:24:17;;;;;;;;;;;;;;;;;;4180796;28;19956;-55
2023/12/13 05:26:18;;;;;;;;;;;;;;;;;;4162983;28;20328;-55
2023/12/13 05:28:20;;;;;;;;;;;;;;;;;;4180558;28;19925;-55
2023/12/13 05:30:23;;;;;;;;;;;;;;;;;;4180819;28;19925;-56
2023/12/13 05:32:25;;;;;;;;;;;;;;;;;;4181040;28;19928;-55
2023/12/13 05:34:27;;;;;;;;;;;;;;;;;;4180929;28;20020;-57
2023/12/13 05:36:31;;;;;;;;;;;;;;;;;;4180874;28;19971;-54
2023/12/13 05:38:33;;;;;;;;;;;;;;;;;;4180464;28;19928;-54
2023/12/13 05:40:35;;;;;;;;;;;;;;;;;;4180455;28;19932;-55
2023/12/13 05:42:37;;;;;;;;;;;;;;;;;;4181980;28;20292;-55
2023/12/13 05:44:41;;;;;;;;;;;;;;;;;;4183588;28;19991;-56
2023/12/13 05:46:42;;;;;;;;;;;;;;;;;;4165772;28;19925;-56
2023/12/13 05:48:44;;;;;;;;;;;;;;;;;;4183547;28;19928;-56
2023/12/13 05:50:46;;;;;;;;;;;;;;;;;;4183687;28;19925;-56
2023/12/13 05:52:47;;;;;;;;;;;;;;;;;;4192737;28;19925;-56
2023/12/13 05:54:51;;;;;;;;;;;;;;;;;;4187980;28;20023;-56
2023/12/13 05:56:52;;;;;;;;;;;;;;;;;;4183322;28;20024;-56
2023/12/13 05:58:54;;;;;;;;;;;;;;;;;;4183228;28;19971;-57
2023/12/13 06:00:56;;;;;;;;;;;;;;;;;;4179697;28;20413;-57
2023/12/13 06:02:59;;;;;;;;;;;;;;;;;;4177307;28;19937;-56
2023/12/13 06:05:01;;;;;;;;;;;;;;;;;;4183400;28;19925;-57
2023/12/13 06:07:03;;;;;;;;;;;;;;;;;;4183172;28;20062;-56
2023/12/13 06:09:05;;;;;;;;;;;;;;;;;;4192338;28;19971;-57
2023/12/13 06:11:07;;;;;;;;;;;;;;;;;;4199465;28;19930;-57
2023/12/13 06:13:08;;;;;;;;;;;;;;;;;;4181660;28;19957;-57
2023/12/13 06:15:10;;;;;;;;;;;;;;;;;;4174864;28;20015;-56
2023/12/13 06:17:11;;;;;;;;;;;;;;;;;;4175372;28;19952;-57
2023/12/13 06:19:13;;;;;;;;;;;;;;;;;;4169438;28;19925;-62
2023/12/13 06:21:14;;;;;;;;;;;;;;;;;;4172589;28;19975;-62
2023/12/13 06:23:16;;;;;;;;;;;;;;;;;;4170727;28;20431;-61
2023/12/13 06:25:17;;;;;;;;;;;;;;;;;;4166232;28;19925;-61
2023/12/13 06:27:19;;;;;;;;;;;;;;;;;;4166512;28;20427;-61
2023/12/13 06:29:21;;;;;;;;;;;;;;;;;;4172652;28;20002;-62
2023/12/13 06:31:22;;;;;;;;;;;;;;;;;;4182695;28;19976;-61
2023/12/13 06:33:24;;;;;;;;;;;;;;;;;;4182710;28;19928;-62
2023/12/13 06:35:25;;;;;;;;;;;;;;;;;;4182605;28;19971;-61
2023/12/13 06:37:27;;;;;;;;;;;;;;;;;;4183054;28;19925;-61
2023/12/13 06:39:29;;;;;;;;;;;;;;;;;;4164873;28;19959;-62
2023/12/13 06:41:30;;;;;;;;;;;;;;;;;;4182775;28;19929;-62
2023/12/13 06:43:31;;;;;;;;;;;;;;;;;;4172621;28;19932;-62
2023/12/13 06:45:33;;;;;;;;;;;;;;;;;;4166498;28;20012;-61
2023/12/13 06:47:34;;;;;;;;;;;;;;;;;;4147927;28;19929;-61
2023/12/13 06:49:36;;;;;;;;;;;;;;;;;;4165966;28;20506;-61
2023/12/13 06:51:38;;;;;;;;;;;;;;;;;;4182129;28;20006;-61
2023/12/13 06:53:39;;;;;;;;;;;;;;;;;;4182156;28;20451;-62
2023/12/13 06:55:41;;;;;;;;;;;;;;;;;;4182646;28;19932;-74
2023/12/13 06:57:42;;;;;;;;;;;;;;;;;;4182300;28;19931;-75
2023/12/13 06:59:44;;;;;;;;;;;;;;;;;;4176650;28;19929;-75
2023/12/13 07:01:45;;;;;;;;;;;;;;;;;;4162352;28;19925;-75
2023/12/13 07:03:47;;;;;;;;;;;;;;;;;;4163046;28;19968;-75
2023/12/13 07:05:48;;;;;;;;;;;;;;;;;;4164814;28;19925;-74
2023/12/13 07:07:51;;;;;;;;;;;;;;;;;;4165674;28;19929;-75
2023/12/13 07:09:53;;;;;;;;;;;;;;;;;;4198214;28;19931;-75
2023/12/13 07:11:55;;;;;;;;;;;;;;;;;;4190593;28;19929;-75
2023/12/13 07:13:56;;;;;;;;;;;;;;;;;;4181015;28;20039;-75
2023/12/13 07:15:58;;;;;;;;;;;;;;;;;;4180742;28;19924;-75
2023/12/13 07:17:59;;;;;;;;;;;;;;;;;;4180266;28;19979;-73
2023/12/13 07:20:01;;;;;;;;;;;;;;;;;;4180986;28;19951;-75
2023/12/13 07:22:02;;;;;;;;;;;;;;;;;;4181936;28;19925;-75
2023/12/13 07:24:04;;;;;;;;;;;;;;;;;;4182055;28;20008;-76
2023/12/13 07:26:06;;;;;;;;;;;;;;;;;;4181942;28;20331;-75
2023/12/13 07:28:08;;;;;;;;;;;;;;;;;;4181964;28;19925;-75
2023/12/13 07:30:09;;;;;;;;;;;;;;;;;;4181779;28;19964;-77
2023/12/13 07:32:11;;;;;;;;;;;;;;;;;;4180680;28;20187;-76
2023/12/13 07:34:12;;;;;;;;;;;;;;;;;;4181857;28;20215;-75
2023/12/13 07:36:14;;;;;;;;;;;;;;;;;;4181789;28;19929;-76
2023/12/13 07:38:16;;;;;;;;;;;;;;;;;;4180508;28;20430;-75
2023/12/13 07:40:17;;;;;;;;;;;;;;;;;;4180477;28;20588;-76
2023/12/13 07:42:19;;;;;;;;;;;;;;;;;;4181659;28;19971;-77
2023/12/13 07:44:20;;;;;;;;;;;;;;;;;;4181490;28;19925;-74
2023/12/13 07:46:22;;;;;;;;;;;;;;;;;;4177654;28;19925;-75
2023/12/13 07:48:24;;;;;;;;;;;;;;;;;;4180321;28;19932;-77
2023/12/13 07:50:30;;;;;;;;;;;;;;;;;;4163966;28;20316;-75
2023/12/13 07:52:32;;;;;;;;;;;;;;;;;;4179504;28;19931;-68
2023/12/13 07:54:34;;;;;;;;;;;;;;;;;;4194831;28;19931;-68
2023/12/13 07:56:35;;;;;;;;;;;;;;;;;;4180358;28;19960;-68
2023/12/13 07:58:37;;;;;;;;;;;;;;;;;;4181583;28;19925;-69
2023/12/13 08:00:39;;;;;;;;;;;;;;;;;;4180780;28;19947;-70
2023/12/13 08:02:40;;;;;;;;;;;;;;;;;;4180263;28;19925;-67
2023/12/13 08:04:48;;;;;;;;;;;;;;;;;;4180082;28;20451;-68
2023/12/13 08:06:50;;;;;;;;;;;;;;;;;;4180325;28;20079;-69
2023/12/13 08:08:52;;;;;;;;;;;;;;;;;;4189126;28;19929;-68
2023/12/13 08:10:53;;;;;;;;;;;;;;;;;;4179993;28;20050;-68
2023/12/13 08:12:55;;;;;;;;;;;;;;;;;;4180119;28;20019;-68
2023/12/13 08:14:56;;;;;;;;;;;;;;;;;;4196856;28;19925;-68
2023/12/13 08:16:58;;;;;;;;;;;;;;;;;;4197958;28;20367;-68
2023/12/13 08:19:01;;;;;;;;;;;;;;;;;;4180164;28;19925;-70
2023/12/13 08:21:06;;;;;;;;;;;;;;;;;;4196712;28;19929;-68
2023/12/13 08:23:07;;;;;;;;;;;;;;;;;;4165019;28;19925;-68
2023/12/13 08:25:09;;;;;;;;;;;;;;;;;;4163328;28;19925;-69
2023/12/13 08:27:10;;;;;;;;;;;;;;;;;;4164624;28;19925;-67
2023/12/13 08:29:12;;;;;;;;;;;;;;;;;;4192574;28;20003;-69
2023/12/13 08:31:13;;;;;;;;;;;;;;;;;;4196434;28;19925;-68
2023/12/13 08:33:21;;;;;;;;;;;;;;;;;;4180442;28;19932;-68
2023/12/13 08:35:22;;;;;;;;;;;;;;;;;;4163637;28;20020;-68
2023/12/13 08:37:24;;;;;;;;;;;;;;;;;;4181327;28;20011;-68
2023/12/13 08:39:25;;;;;;;;;;;;;;;;;;4162738;28;19932;-68
2023/12/13 08:41:27;;;;;;;;;;;;;;;;;;4181517;28;19975;-68
2023/12/13 08:43:29;;;;;;;;;;;;;;;;;;4170184;28;19926;-68
2023/12/13 08:45:31;;;;;;;;;;;;;;;;;;4164502;28;20232;-68
2023/12/13 08:47:32;;;;;;;;;;;;;;;;;;4165023;28;19929;-68
2023/12/13 08:49:34;;;;;;;;;;;;;;;;;;4164688;28;19940;-68
2023/12/13 08:51:36;;;;;;;;;;;;;;;;;;4174151;28;20024;-67
2023/12/13 08:53:38;;;;;;;;;;;;;;;;;;4197237;28;19924;-68
2023/12/13 08:55:39;;;;;;;;;;;;;;;;;;4197684;28;19925;-69
2023/12/13 08:57:41;;;;;;;;;;;;;;;;;;4196477;28;19931;-68
2023/12/13 08:59:43;;;;;;;;;;;;;;;;;;4197612;28;19924;-67
2023/12/13 09:01:45;;;;;;;;;;;;;;;;;;4195834;28;20013;-67
2023/12/13 09:03:47;;;;;;;;;;;;;;;;;;4196832;28;20351;-68
2023/12/13 09:05:49;;;;;;;;;;;;;;;;;;4196382;28;19925;-68
2023/12/13 09:07:50;;;;;;;;;;;;;;;;;;4197480;28;20402;-68
2023/12/13 09:09:52;;;;;;;;;;;;;;;;;;4197283;28;19929;-68
2023/12/13 09:11:54;;;;;;;;;;;;;;;;;;4179552;28;19928;-68
2023/12/13 09:13:56;;;;;;;;;;;;;;;;;;4196289;28;20482;-68
2023/12/13 09:15:57;;;;;;;;;;;;;;;;;;4197396;28;19925;-68
2023/12/13 09:17:59;;;;;;;;;;;;;;;;;;4175481;28;19924;-68
2023/12/13 09:20:00;;;;;;;;;;;;;;;;;;4183819;28;20027;-68
2023/12/13 09:22:03;;;;;;;;;;;;;;;;;;4181979;28;20020;-67
2023/12/13 09:24:05;;;;;;;;;;;;;;;;;;4166227;28;20373;-69
2023/12/13 09:26:06;;;;;;;;;;;;;;;;;;4182463;28;19928;-68
2023/12/13 09:28:08;;;;;;;;;;;;;;;;;;4166135;28;19925;-67
2023/12/13 09:30:11;;;;;;;;;;;;;;;;;;4165983;28;19925;-67
2023/12/13 09:32:13;;;;;;;;;;;;;;;;;;4181690;28;19931;-67
2023/12/13 09:34:15;;;;;;;;;;;;;;;;;;4182977;28;19929;-68
2023/12/13 09:36:17;;;;;;;;;;;;;;;;;;4183773;28;20395;-67
2023/12/13 09:38:18;;;;;;;;;;;;;;;;;;4183906;28;19970;-69
2023/12/13 09:40:20;;;;;;;;;;;;;;;;;;4182305;28;19974;-68
2023/12/13 09:42:21;;;;;;;;;;;;;;;;;;4182508;28;19929;-68
2023/12/13 09:44:23;;;;;;;;;;;;;;;;;;4183752;28;19925;-67
2023/12/13 09:46:25;;;;;;;;;;;;;;;;;;4182898;28;19976;-68
2023/12/13 09:48:26;;;;;;;;;;;;;;;;;;4183494;28;19936;-68
2023/12/13 09:50:28;;;;;;;;;;;;;;;;;;4183436;28;19931;-67
2023/12/13 09:52:29;;;;;;;;;;;;;;;;;;4190637;28;20338;-68
2023/12/13 09:54:31;;;;;;;;;;;;;;;;;;4198804;28;19924;-68
2023/12/13 09:56:35;;;;;;;;;;;;;;;;;;4198960;28;19966;-68
2023/12/13 09:58:36;;;;;;;;;;;;;;;;;;4199941;28;19928;-68
2023/12/13 10:00:38;;;;;;;;;;;;;;;;;;4198860;28;20023;-68
2023/12/13 10:02:39;;;;;;;;;;;;;;;;;;4181897;28;20295;-67
2023/12/13 10:04:41;;;;;;;;;;;;;;;;;;4199813;28;20388;-68
2023/12/13 10:06:45;;;;;;;;;;;;;;;;;;4200092;28;19924;-68
2023/12/13 10:08:46;;;;;;;;;;;;;;;;;;4199395;28;20387;-68
2023/12/13 10:10:48;;;;;;;;;;;;;;;;;;4198649;28;19971;-67
2023/12/13 10:12:49;;;;;;;;;;;;;;;;;;4182642;28;20348;-69
2023/12/13 10:14:51;;;;;;;;;;;;;;;;;;4183235;28;20015;-75
2023/12/13 10:16:52;;;;;;;;;;;;;;;;;;4181806;28;19925;-74
2023/12/13 10:19:01;;;;;;;;;;;;;;;;;;4166134;28;20024;-74
2023/12/13 10:21:04;;;;;;;;;;;;;;;;;;4164977;28;19978;-74
2023/12/13 10:23:05;;;;;;;;;;;;;;;;;;4182867;28;19925;-74
2023/12/13 10:25:07;;;;;;;;;;;;;;;;;;4183011;28;19935;-76
2023/12/13 10:27:08;;;;;;;;;;;;;;;;;;4182851;28;20335;-74
2023/12/13 10:29:10;;;;;;;;;;;;;;;;;;4164271;28;20036;-74
2023/12/13 10:31:12;;;;;;;;;;;;;;;;;;4182966;28;20303;-74
2023/12/13 10:33:13;;;;;;;;;;;;;;;;;;4181489;28;19928;-75
2023/12/13 10:35:15;;;;;;;;;;;;;;;;;;4160183;28;20341;-75
2023/12/13 10:37:16;;;;;;;;;;;;;;;;;;4165289;28;19933;-79
2023/12/13 10:39:18;;;;;;;;;;;;;;;;;;4164976;28;19929;-75
2023/12/13 10:41:19;;;;;;;;;;;;;;;;;;4164895;28;20355;-77
2023/12/13 10:43:21;;;;;;;;;;;;;;;;;;4169718;28;20312;-75
2023/12/13 10:45:24;;;;;;;;;;;;;;;;;;4181154;28;19979;-75
2023/12/13 10:47:25;;;;;;;;;;;;;;;;;;4180422;28;19925;-76
2023/12/13 10:49:27;;;;;;;;;;;;;;;;;;4178967;28;19924;-77
2023/12/13 10:51:29;;;;;;;;;;;;;;;;;;4170236;28;19952;-75
2023/12/13 10:53:30;;;;;;;;;;;;;;;;;;4168626;28;20016;-76
2023/12/13 10:55:32;;;;;;;;;;;;;;;;;;4167258;28;20060;-77
2023/12/13 10:57:33;;;;;;;;;;;;;;;;;;4168141;28;19936;-77
2023/12/13 10:59:36;;;;;;;;;;;;;;;;;;4173520;28;20322;-77
2023/12/13 11:01:39;;;;;;;;;;;;;;;;;;4182061;28;20019;-77
2023/12/13 11:03:41;;;;;;;;;;;;;;;;;;4182243;28;20366;-77
2023/12/13 11:05:42;;;;;;;;;;;;;;;;;;4171520;28;19925;-77
2023/12/13 11:07:44;;;;;;;;;;;;;;;;;;4163471;28;19940;-77
2023/12/13 11:09:46;;;;;;;;;;;;;;;;;;4172068;28;20324;-76
2023/12/13 11:11:47;;;;;;;;;;;;;;;;;;4163425;28;19929;-76
2023/12/13 11:13:49;;;;;;;;;;;;;;;;;;4182300;28;19924;-75
2023/12/13 11:15:50;;;;;;;;;;;;;;;;;;4176447;28;19929;-74
2023/12/13 11:17:54;;;;;;;;;;;;;;;;;;4181316;28;19924;-76
2023/12/13 11:19:56;;;;;;;;;;;;;;;;;;4163161;28;21071;-76
2023/12/13 11:21:58;;;;;;;;;;;;;;;;;;4179828;28;19964;-75
2023/12/13 11:24:00;;;;;;;;;;;;;;;;;;4165423;28;20419;-73
2023/12/13 11:26:02;;;;;;;;;;;;;;;;;;4181180;28;19983;-74
2023/12/13 11:28:03;;;;;;;;;;;;;;;;;;4178951;28;19932;-75
2023/12/13 11:30:05;;;;;;;;;;;;;;;;;;4164339;28;19936;-75
2023/12/13 11:32:07;;;;;;;;;;;;;;;;;;4163977;28;20039;-75
2023/12/13 11:34:10;;;;;;;;;;;;;;;;;;4164008;28;19925;-75
2023/12/13 11:36:12;;;;;;;;;;;;;;;;;;4181913;28;19964;-76
2023/12/13 11:38:13;;;;;;;;;;;;;;;;;;4163679;28;20015;-77
2023/12/13 11:40:15;;;;;;;;;;;;;;;;;;4181080;28;20019;-77
2023/12/13 11:42:17;;;;;;;;;;;;;;;;;;4164190;28;19925;-77
2023/12/13 11:44:19;;;;;;;;;;;;;;;;;;4163540;28;20375;-76
2023/12/13 11:46:20;;;;;;;;;;;;;;;;;;4165428;28;19936;-76
2023/12/13 11:48:22;;;;;;;;;;;;;;;;;;4170337;28;19931;-77
2023/12/13 11:50:24;;;;;;;;;;;;;;;;;;4163141;28;20396;-76
2023/12/13 11:52:26;;;;;;;;;;;;;;;;;;4179058;28;19924;-77
2023/12/13 11:54:27;;;;;;;;;;;;;;;;;;4180201;28;20285;-76
2023/12/13 11:56:29;;;;;;;;;;;;;;;;;;4180512;28;20024;-77
2023/12/13 11:58:31;;;;;;;;;;;;;;;;;;4190347;28;20350;-76
2023/12/13 12:00:32;;;;;;;;;;;;;;;;;;4181136;28;19925;-77
2023/12/13 12:02:34;;;;;;;;;;;;;;;;;;4176997;28;19997;-76
2023/12/13 12:04:35;;;;;;;;;;;;;;;;;;4180086;28;19964;-76
2023/12/13 12:06:37;;;;;;;;;;;;;;;;;;4158298;28;19926;-77
2023/12/13 12:08:41;;;;;;;;;;;;;;;;;;4154878;28;19975;-76
2023/12/13 12:10:42;;;;;;;;;;;;;;;;;;4180971;28;19925;-77
2023/12/13 12:12:44;;;;;;;;;;;;;;;;;;4178901;28;19925;-76
2023/12/13 12:14:47;;;;;;;;;;;;;;;;;;4180137;28;19931;-76
2023/12/13 12:16:49;;;;;;;;;;;;;;;;;;4179384;28;19925;-78
2023/12/13 12:18:52;;;;;;;;;;;;;;;;;;4179851;28;20427;-77
2023/12/13 12:20:53;;;;;;;;;;;;;;;;;;4163333;28;19925;-76
2023/12/13 12:22:55;;;;;;;;;;;;;;;;;;4163073;28;20012;-63
2023/12/13 12:24:57;;;;;;;;;;;;;;;;;;4183270;28;19925;-75
2023/12/13 12:26:58;;;;;;;;;;;;;;;;;;4179307;28;19928;-77
2023/12/13 12:29:00;;;;;;;;;;;;;;;;;;4179454;28;19928;-77
2023/12/13 12:31:01;;;;;;;;;;;;;;;;;;4163313;28;20002;-76
2023/12/13 12:33:03;;;;;;;;;;;;;;;;;;4181141;28;20015;-78
2023/12/13 12:35:06;;;;;;;;;;;;;;;;;;4166981;28;19932;-73
2023/12/13 12:37:08;;;;;;;;;;;;;;;;;;4176315;28;20385;-71
2023/12/13 12:39:11;;;;;;;;;;;;;;;;;;4149363;28;19929;-71
2023/12/13 12:41:17;;;;;;;;;;;;;;;;;;4177007;28;20008;-71
2023/12/13 12:43:19;;;;;;;;;;;;;;;;;;4146623;28;19979;-71
2023/12/13 12:45:22;;;;;;;;;;;;;;;;;;4142415;28;19945;-71
2023/12/13 12:47:23;;;;;;;;;;;;;;;;;;4176649;28;19946;-71
2023/12/13 12:49:27;;;;;;;;;;;;;;;;;;4163947;28;19926;-71
2023/12/13 12:51:29;;;;;;;;;;;;;;;;;;4163414;28;19932;-71
2023/12/13 12:53:30;;;;;;;;;;;;;;;;;;4166340;28;20401;-70
2023/12/13 12:55:32;;;;;;;;;;;;;;;;;;4150458;28;20013;-71
2023/12/13 12:57:34;;;;;;;;;;;;;;;;;;4166307;28;19931;-71
2023/12/13 12:59:36;;;;;;;;;;;;;;;;;;4150819;28;19925;-71
2023/12/13 13:01:38;;;;;;;;;;;;;;;;;;4150950;28;20028;-71
2023/12/13 13:03:39;;;;;;;;;;;;;;;;;;4161192;28;20409;-72
2023/12/13 13:08:09;;;;;;;;;;;;;;;;;;4149460;28;20483;-71
2023/12/13 13:10:11;;;;;;;;;;;;;;;;;;4133282;28;20029;-70
2023/12/13 13:12:12;;;;;;;;;;;;;;;;;;4133234;28;19925;-71
2023/12/13 13:14:14;;;;;;;;;;;;;;;;;;4126580;28;19926;-70
2023/12/13 13:16:15;;;;;;;;;;;;;;;;;;4129929;28;19930;-70
2023/12/13 13:18:20;;;;;;;;;;;;;;;;;;4132603;28;20418;-70
2023/12/13 13:20:22;;;;;;;;;;;;;;;;;;4127681;28;19926;-70
2023/12/13 13:22:24;;;;;;;;;;;;;;;;;;4139446;28;19925;-70
2023/12/13 13:24:26;;;;;;;;;;;;;;;;;;4133096;28;20028;-69
2023/12/13 13:26:27;;;;;;;;;;;;;;;;;;4133177;28;20345;-69
2023/12/13 13:28:29;;;;;;;;;;;;;;;;;;4132871;28;19961;-69
2023/12/13 13:30:32;;;;;;;;;;;;;;;;;;4148247;28;19925;-65
2023/12/13 13:32:33;;;;;;;;;;;;;;;;;;4147299;28;20278;-65
2023/12/13 13:34:35;;;;;;;;;;;;;;;;;;4147509;28;20024;-65
2023/12/13 13:36:36;;;;;;;;;;;;;;;;;;4148431;28;19976;-65
2023/12/13 13:38:38;;;;;;;;;;;;;;;;;;4145713;28;19925;-65
2023/12/13 13:40:40;;;;;;;;;;;;;;;;;;4147916;28;19940;-66
2023/12/13 13:42:41;;;;;;;;;;;;;;;;;;4148790;28;19964;-64
2023/12/13 13:44:43;;;;;;;;;;;;;;;;;;4152882;28;19975;-68
2023/12/13 13:46:44;;;;;;;;;;;;;;;;;;4167031;28;19932;-69
2023/12/13 13:48:46;;;;;;;;;;;;;;;;;;4167023;28;19925;-69
2023/12/13 13:50:47;;;;;;;;;;;;;;;;;;4166845;28;19925;-69
2023/12/13 13:52:49;;;;;;;;;;;;;;;;;;4186224;28;19924;-70
2023/12/13 13:54:50;;;;;;;;;;;;;;;;;;4200183;28;19958;-72
2023/12/13 13:56:52;;;;;;;;;;;;;;;;;;4199981;28;19979;-71